Time;durP1;ratioP1;P1;durP2;ratioP2;P2;SDS_P1;SDS_P2;PMS_P1;PMS_P2;Temp;Humidity;BMP_temperature;BMP_pressure;BME280_temperature;BME280_humidity;BME280_pressure;Samples;Min_cycle;Max_cycle;Signal;HPM_P1;HPM_P2
2022/07/14 00:00:23;;;;;;;0.10;0.10;;;13.80;99.90;;;;;;5015468;28;20238;-79
2022/07/14 00:02:49;;;;;;;0.10;0.10;;;13.70;99.90;;;;;;5026732;28;20209;-79
2022/07/14 00:05:14;;;;;;;0.10;0.10;;;13.70;99.90;;;;;;5030761;28;20804;-79
2022/07/14 00:07:40;;;;;;;0.10;0.10;;;13.80;99.90;;;;;;5014994;28;20195;-79
2022/07/14 00:10:06;;;;;;;0.10;0.10;;;13.80;99.90;;;;;;5025306;28;20202;-79
2022/07/14 00:12:31;;;;;;;0.10;0.10;;;13.80;99.90;;;;;;5024400;28;20650;-79
2022/07/14 00:14:57;;;;;;;0.10;0.10;;;13.70;99.90;;;;;;5033384;28;20241;-79
2022/07/14 00:17:22;;;;;;;0.10;0.10;;;13.70;99.90;;;;;;5027385;28;20209;-79
2022/07/14 00:19:48;;;;;;;0.10;0.10;;;13.70;99.90;;;;;;5014187;28;20298;-79
2022/07/14 00:22:14;;;;;;;0.10;0.10;;;13.60;99.90;;;;;;5026413;28;20211;-79
2022/07/14 00:24:39;;;;;;;0.10;0.10;;;13.50;99.90;;;;;;5032073;28;20194;-79
2022/07/14 00:27:05;;;;;;;0.10;0.10;;;13.50;99.90;;;;;;5012712;28;20694;-79
2022/07/14 00:29:30;;;;;;;0.10;0.10;;;13.50;99.90;;;;;;5029772;28;20253;-79
2022/07/14 00:31:56;;;;;;;0.10;0.10;;;13.60;99.90;;;;;;5026068;28;20682;-79
2022/07/14 00:34:22;;;;;;;0.10;0.10;;;13.70;99.90;;;;;;5023338;28;20194;-79
2022/07/14 00:36:47;;;;;;;0.10;0.10;;;13.60;99.90;;;;;;5028614;28;20805;-79
2022/07/14 00:39:13;;;;;;;0.10;0.10;;;13.60;99.90;;;;;;5021088;28;20194;-79
2022/07/14 00:41:38;;;;;;;0.10;0.10;;;13.50;99.90;;;;;;5027439;28;20192;-79
2022/07/14 00:44:04;;;;;;;0.10;0.10;;;13.40;99.90;;;;;;5013115;28;20184;-80
2022/07/14 00:46:29;;;;;;;0.17;0.17;;;13.40;99.90;;;;;;5029815;28;20958;-78
2022/07/14 00:48:56;;;;;;;0.10;0.10;;;13.40;99.90;;;;;;5028982;28;20187;-79
2022/07/14 00:51:21;;;;;;;0.10;0.10;;;13.30;99.90;;;;;;5005152;28;20194;-79
2022/07/14 00:53:55;;;;;;;0.10;0.10;;;13.30;99.90;;;;;;5027777;28;20446;-79
2022/07/14 00:56:21;;;;;;;0.10;0.10;;;13.20;99.90;;;;;;5025367;28;20238;-79
2022/07/14 00:58:46;;;;;;;0.10;0.10;;;13.30;99.90;;;;;;5019818;28;20450;-79
2022/07/14 01:01:12;;;;;;;0.10;0.10;;;13.20;99.90;;;;;;5028382;28;20206;-78
2022/07/14 01:03:37;;;;;;;0.20;0.20;;;13.20;99.90;;;;;;5014981;28;20183;-80
2022/07/14 01:06:04;;;;;;;0.10;0.10;;;13.30;99.90;;;;;;5001356;28;20273;-79
2022/07/14 01:08:29;;;;;;;0.10;0.10;;;13.30;99.90;;;;;;5027153;28;20191;-79
2022/07/14 01:10:55;;;;;;;0.20;0.20;;;13.30;99.90;;;;;;5027455;28;20442;-79
2022/07/14 01:13:21;;;;;;;0.10;0.10;;;13.40;99.90;;;;;;5021158;28;20214;-79
2022/07/14 01:15:46;;;;;;;0.10;0.10;;;13.40;99.90;;;;;;5028696;28;20924;-79
2022/07/14 01:18:12;;;;;;;0.10;0.10;;;13.30;99.90;;;;;;5029048;28;20219;-79
2022/07/14 01:20:37;;;;;;;0.10;0.10;;;13.20;99.90;;;;;;5028158;28;20685;-79
2022/07/14 01:23:03;;;;;;;0.10;0.10;;;13.30;99.90;;;;;;5025565;28;20200;-79
2022/07/14 01:25:29;;;;;;;0.10;0.10;;;13.20;99.90;;;;;;5012202;28;20172;-79
2022/07/14 01:27:54;;;;;;;0.10;0.10;;;13.10;99.90;;;;;;5017931;28;20647;-79
2022/07/14 01:30:20;;;;;;;0.10;0.10;;;13.10;99.90;;;;;;5029237;28;20634;-79
2022/07/14 01:32:46;;;;;;;0.10;0.10;;;13.00;99.90;;;;;;5028312;28;20511;-79
2022/07/14 01:35:11;;;;;;;0.10;0.10;;;13.10;99.90;;;;;;5005293;28;20216;-79
2022/07/14 01:37:37;;;;;;;0.10;0.10;;;12.90;99.90;;;;;;5026963;28;20639;-79
2022/07/14 01:40:04;;;;;;;0.10;0.10;;;12.80;99.90;;;;;;5028294;28;20195;-79
2022/07/14 01:42:30;;;;;;;0.10;0.10;;;12.90;99.90;;;;;;5027947;28;20195;-79
2022/07/14 01:44:55;;;;;;;0.10;0.10;;;12.90;99.90;;;;;;5012468;28;20460;-79
2022/07/14 01:47:21;;;;;;;0.10;0.10;;;12.80;99.90;;;;;;5006645;28;20807;-80
2022/07/14 01:49:47;;;;;;;0.10;0.10;;;13.00;99.90;;;;;;5012433;28;20192;-79
2022/07/14 01:52:12;;;;;;;0.10;0.10;;;13.00;99.90;;;;;;5012265;28;20242;-80
2022/07/14 01:54:38;;;;;;;0.10;0.10;;;13.00;99.90;;;;;;5027882;28;20210;-80
2022/07/14 01:57:06;;;;;;;0.10;0.10;;;13.00;99.90;;;;;;5027080;28;22158;-79
2022/07/14 01:59:31;;;;;;;0.20;0.20;;;12.90;99.90;;;;;;4998971;28;20187;-79
2022/07/14 02:01:57;;;;;;;0.10;0.10;;;13.00;99.90;;;;;;5026143;28;20446;-80
2022/07/14 02:04:22;;;;;;;0.10;0.10;;;13.00;99.90;;;;;;5006152;28;20299;-79
2022/07/14 02:06:53;;;;;;;0.10;0.10;;;12.90;99.90;;;;;;5015013;28;20769;-79
2022/07/14 02:09:19;;;;;;;0.10;0.10;;;13.00;99.90;;;;;;5025543;28;20203;-79
2022/07/14 02:14:32;;;;;;;0.10;0.10;;;12.90;99.90;;;;;;5029087;28;20496;-79
2022/07/14 02:16:57;;;;;;;0.20;0.20;;;12.90;99.90;;;;;;5027951;28;20465;-79
2022/07/14 02:19:24;;;;;;;0.20;0.20;;;12.70;99.90;;;;;;5015798;28;20451;-79
2022/07/14 02:21:51;;;;;;;0.10;0.10;;;12.60;99.90;;;;;;5020441;28;20592;-79
2022/07/14 02:24:17;;;;;;;0.10;0.10;;;12.40;99.90;;;;;;5029577;28;20805;-79
2022/07/14 02:26:43;;;;;;;0.10;0.10;;;12.40;99.90;;;;;;5027779;28;21118;-79
2022/07/14 02:29:09;;;;;;;0.20;0.20;;;12.30;99.90;;;;;;5027416;28;20442;-79
2022/07/14 02:31:34;;;;;;;0.10;0.10;;;12.30;99.90;;;;;;5028183;28;20198;-79
2022/07/14 02:34:01;;;;;;;0.20;0.20;;;12.20;99.90;;;;;;5002361;28;20203;-79
2022/07/14 02:36:27;;;;;;;0.20;0.20;;;12.30;99.90;;;;;;5026331;28;20191;-79
2022/07/14 02:38:53;;;;;;;0.20;0.20;;;12.20;99.90;;;;;;5023186;28;20442;-80
2022/07/14 02:41:19;;;;;;;0.10;0.10;;;12.20;99.90;;;;;;5026433;28;20465;-79
2022/07/14 02:43:44;;;;;;;0.10;0.10;;;12.10;99.90;;;;;;5028388;28;20509;-79
2022/07/14 02:46:10;;;;;;;0.20;0.20;;;12.10;99.90;;;;;;5029319;28;20246;-79
2022/07/14 02:48:35;;;;;;;0.10;0.10;;;12.10;99.90;;;;;;5025474;28;20203;-80
2022/07/14 02:51:08;;;;;;;0.10;0.10;;;12.10;99.90;;;;;;5013521;28;20203;-79
2022/07/14 02:53:34;;;;;;;0.20;0.20;;;12.20;99.90;;;;;;5005733;28;20188;-79
2022/07/14 02:56:05;;;;;;;0.10;0.10;;;12.20;99.90;;;;;;5029636;28;20434;-79
2022/07/14 02:58:31;;;;;;;0.20;0.20;;;12.20;99.90;;;;;;5028960;28;20454;-79
2022/07/14 03:00:57;;;;;;;0.17;0.17;;;12.20;99.90;;;;;;5011822;28;20800;-79
2022/07/14 03:03:23;;;;;;;0.10;0.10;;;12.20;99.90;;;;;;5011841;28;20222;-79
2022/07/14 03:05:49;;;;;;;0.10;0.10;;;12.30;99.90;;;;;;5026470;28;20252;-79
2022/07/14 03:08:15;;;;;;;0.10;0.10;;;12.30;99.90;;;;;;5030593;28;20414;-80
2022/07/14 03:10:41;;;;;;;0.10;0.10;;;12.30;99.90;;;;;;5010350;28;21126;-79
2022/07/14 03:13:07;;;;;;;0.10;0.10;;;12.20;99.90;;;;;;5029595;28;20643;-79
2022/07/14 03:15:33;;;;;;;0.10;0.10;;;12.20;99.90;;;;;;5026284;28;20461;-79
2022/07/14 03:17:59;;;;;;;0.10;0.10;;;12.10;99.90;;;;;;5011748;28;20820;-79
2022/07/14 03:20:25;;;;;;;0.20;0.20;;;12.20;99.90;;;;;;5011319;28;20186;-79
2022/07/14 03:22:50;;;;;;;0.10;0.10;;;12.40;99.90;;;;;;5030542;28;20589;-78
2022/07/14 03:25:16;;;;;;;0.10;0.10;;;12.60;99.90;;;;;;5019806;28;20200;-79
2022/07/14 03:27:41;;;;;;;0.13;0.13;;;12.50;99.90;;;;;;5028966;28;20218;-79
2022/07/14 03:30:08;;;;;;;0.10;0.10;;;12.60;99.90;;;;;;5026866;28;20241;-79
2022/07/14 03:32:34;;;;;;;0.20;0.20;;;12.50;99.90;;;;;;5028836;28;20203;-79
2022/07/14 03:35:03;;;;;;;0.10;0.10;;;12.40;99.90;;;;;;5029155;28;20445;-79
2022/07/14 03:37:28;;;;;;;0.10;0.10;;;12.60;99.90;;;;;;5029136;28;20494;-80
2022/07/14 03:39:54;;;;;;;0.10;0.10;;;12.50;99.90;;;;;;5014008;28;20481;-79
2022/07/14 03:42:19;;;;;;;0.10;0.10;;;12.50;99.90;;;;;;5028329;28;20233;-79
2022/07/14 03:44:45;;;;;;;0.20;0.20;;;12.50;99.90;;;;;;5016162;28;20221;-79
2022/07/14 03:47:10;;;;;;;0.20;0.20;;;12.60;99.90;;;;;;5032305;28;20261;-80
2022/07/14 03:49:36;;;;;;;0.20;0.20;;;12.60;99.90;;;;;;5016007;28;20270;-79
2022/07/14 03:52:02;;;;;;;0.20;0.20;;;12.60;99.90;;;;;;5030328;28;20200;-79
2022/07/14 03:54:27;;;;;;;0.20;0.20;;;12.60;99.90;;;;;;5021943;28;20228;-80
2022/07/14 03:56:53;;;;;;;0.20;0.20;;;12.60;99.90;;;;;;5028636;28;20230;-79
2022/07/14 03:59:18;;;;;;;0.17;0.17;;;12.50;99.90;;;;;;5018831;28;20203;-79
2022/07/14 04:01:44;;;;;;;0.10;0.10;;;12.70;99.90;;;;;;5032461;28;20190;-80
2022/07/14 04:04:09;;;;;;;0.10;0.10;;;12.70;99.90;;;;;;5013363;28;20291;-80
2022/07/14 04:06:35;;;;;;;0.20;0.20;;;12.60;99.90;;;;;;5033490;28;20353;-80
2022/07/14 04:09:03;;;;;;;0.10;0.10;;;12.60;99.90;;;;;;5008253;28;20197;-80
2022/07/14 04:11:29;;;;;;;0.20;0.20;;;12.50;99.90;;;;;;5023011;28;20199;-79
2022/07/14 04:13:54;;;;;;;0.20;0.20;;;12.60;99.90;;;;;;5031819;28;20449;-80
2022/07/14 04:16:20;;;;;;;0.20;0.20;;;12.60;99.90;;;;;;5029094;28;20211;-79
2022/07/14 04:18:45;;;;;;;0.20;0.20;;;12.50;99.90;;;;;;5021664;28;20959;-79
2022/07/14 04:21:11;;;;;;;0.10;0.10;;;12.60;99.90;;;;;;5018438;28;20191;-80
2022/07/14 04:23:37;;;;;;;0.20;0.20;;;12.70;99.90;;;;;;5016960;28;20195;-79
2022/07/14 04:26:03;;;;;;;0.10;0.10;;;12.80;99.90;;;;;;5006202;28;20770;-80
2022/07/14 04:28:29;;;;;;;0.20;0.20;;;12.70;99.90;;;;;;5015720;28;20460;-80
2022/07/14 04:30:55;;;;;;;0.20;0.20;;;12.70;99.90;;;;;;5025690;28;20434;-80
2022/07/14 04:33:21;;;;;;;0.20;0.20;;;12.70;99.90;;;;;;5028954;28;20979;-79
2022/07/14 04:35:48;;;;;;;0.20;0.20;;;12.80;99.90;;;;;;5033809;28;20238;-79
2022/07/14 04:38:14;;;;;;;0.20;0.20;;;12.80;99.90;;;;;;5026755;28;20529;-79
2022/07/14 04:40:47;;;;;;;0.10;0.10;;;12.90;99.90;;;;;;5020640;28;20486;-80
2022/07/14 04:43:12;;;;;;;0.20;0.20;;;12.90;99.90;;;;;;5014066;28;20522;-79
2022/07/14 04:45:38;;;;;;;0.20;0.20;;;12.90;99.90;;;;;;5002803;28;20533;-79
2022/07/14 04:48:04;;;;;;;0.20;0.20;;;13.00;99.90;;;;;;5009958;28;20673;-79
2022/07/14 04:53:13;;;;;;;0.10;0.10;;;13.00;99.90;;;;;;5020175;28;20191;-79
2022/07/14 04:55:39;;;;;;;0.20;0.20;;;13.00;99.90;;;;;;5022043;28;20789;-79
2022/07/14 04:58:04;;;;;;;0.13;0.13;;;13.00;99.90;;;;;;5024053;28;20703;-80
2022/07/14 05:00:30;;;;;;;0.17;0.17;;;13.20;99.90;;;;;;5020901;28;20250;-80
2022/07/14 05:02:55;;;;;;;0.10;0.10;;;13.30;99.90;;;;;;5014187;28;20211;-80
2022/07/14 05:05:21;;;;;;;0.10;0.10;;;13.30;99.90;;;;;;5024223;28;20202;-78
2022/07/14 05:07:47;;;;;;;0.10;0.10;;;13.40;99.90;;;;;;5022892;28;20208;-80
2022/07/14 05:10:12;;;;;;;0.10;0.10;;;13.40;99.90;;;;;;5026679;28;20195;-80
2022/07/14 05:12:38;;;;;;;0.10;0.10;;;13.60;99.90;;;;;;5005228;28;20188;-79
2022/07/14 05:15:03;;;;;;;0.10;0.10;;;13.70;99.90;;;;;;5025970;28;20195;-79
2022/07/14 05:17:29;;;;;;;0.10;0.10;;;13.70;99.90;;;;;;5027461;28;20202;-79
2022/07/14 05:19:54;;;;;;;0.10;0.10;;;13.80;99.90;;;;;;5029990;28;20501;-79
2022/07/14 05:22:20;;;;;;;0.10;0.10;;;13.90;99.90;;;;;;5024832;28;20233;-80
2022/07/14 05:24:45;;;;;;;0.10;0.10;;;13.90;99.90;;;;;;5029032;28;20188;-80
2022/07/14 05:27:11;;;;;;;0.10;0.10;;;14.00;99.90;;;;;;5024521;28;20224;-79
2022/07/14 05:29:37;;;;;;;0.10;0.10;;;14.10;99.90;;;;;;5006659;28;20184;-79
2022/07/14 05:32:03;;;;;;;0.10;0.10;;;14.30;99.90;;;;;;5027709;28;20183;-79
2022/07/14 05:34:29;;;;;;;0.10;0.10;;;14.40;99.90;;;;;;5012564;28;20533;-79
2022/07/14 05:36:55;;;;;;;0.10;0.10;;;14.50;99.90;;;;;;5024258;28;20450;-80
2022/07/14 05:39:20;;;;;;;0.10;0.10;;;14.50;99.90;;;;;;5029056;28;20453;-79
2022/07/14 05:41:46;;;;;;;0.10;0.10;;;14.50;99.90;;;;;;5024223;28;20206;-80
2022/07/14 05:44:12;;;;;;;0.10;0.10;;;14.60;99.90;;;;;;5030635;28;20192;-80
2022/07/14 05:46:37;;;;;;;0.10;0.10;;;14.70;99.90;;;;;;5028146;28;20566;-79
2022/07/14 05:49:03;;;;;;;0.10;0.10;;;14.80;99.90;;;;;;5010338;28;20814;-80
2022/07/14 05:51:28;;;;;;;0.10;0.10;;;14.90;99.90;;;;;;5029759;28;20246;-79
2022/07/14 05:53:54;;;;;;;0.10;0.10;;;15.10;99.90;;;;;;5030556;28;20569;-81
2022/07/14 05:56:21;;;;;;;0.10;0.10;;;15.10;99.90;;;;;;5024968;28;20228;-80
2022/07/14 05:58:46;;;;;;;0.10;0.10;;;15.20;99.90;;;;;;5002719;28;20560;-80
2022/07/14 06:01:13;;;;;;;0.10;0.10;;;15.30;99.90;;;;;;5024347;28;20442;-79
2022/07/14 06:03:39;;;;;;;0.10;0.10;;;15.20;99.90;;;;;;5012061;28;20176;-80
2022/07/14 06:06:09;;;;;;;0.10;0.10;;;15.30;99.90;;;;;;5006424;28;20496;-81
2022/07/14 06:08:35;;;;;;;0.10;0.10;;;15.50;99.90;;;;;;5019708;28;20196;-80
2022/07/14 06:11:01;;;;;;;0.10;0.10;;;15.60;99.90;;;;;;5012408;28;20552;-80
2022/07/14 06:13:29;;;;;;;0.10;0.10;;;15.60;99.90;;;;;;5025456;28;20453;-80
2022/07/14 06:15:55;;;;;;;0.10;0.10;;;15.60;99.90;;;;;;5022021;28;20453;-80
2022/07/14 06:18:22;;;;;;;0.10;0.10;;;15.70;99.90;;;;;;5020373;28;20454;-80
2022/07/14 06:20:48;;;;;;;0.10;0.10;;;15.80;99.90;;;;;;5030018;28;20481;-81
2022/07/14 06:23:13;;;;;;;0.10;0.10;;;15.80;99.90;;;;;;5013225;28;20426;-81
2022/07/14 06:25:40;;;;;;;0.10;0.10;;;15.90;99.90;;;;;;5024735;28;20187;-79
2022/07/14 06:28:06;;;;;;;0.10;0.10;;;15.90;99.90;;;;;;5012105;28;20219;-80
2022/07/14 06:30:33;;;;;;;0.10;0.10;;;16.00;99.90;;;;;;5026507;28;20544;-80
2022/07/14 06:32:59;;;;;;;0.10;0.10;;;16.20;99.90;;;;;;5029310;28;20504;-81
2022/07/14 06:35:25;;;;;;;0.10;0.10;;;16.20;99.90;;;;;;5028384;28;20934;-81
2022/07/14 06:37:52;;;;;;;0.10;0.10;;;16.20;99.90;;;;;;5027695;28;20342;-80
2022/07/14 06:40:17;;;;;;;0.10;0.10;;;16.30;99.90;;;;;;5043193;28;20801;-79
2022/07/14 06:42:43;;;;;;;0.10;0.10;;;16.40;99.90;;;;;;5025040;28;20438;-79
2022/07/14 06:45:09;;;;;;;0.10;0.10;;;16.50;99.90;;;;;;5025435;28;20199;-79
2022/07/14 06:47:35;;;;;;;0.10;0.10;;;16.70;99.90;;;;;;5003448;28;20223;-79
2022/07/14 06:50:00;;;;;;;0.10;0.10;;;16.70;99.90;;;;;;5011141;28;20233;-79
2022/07/14 06:52:26;;;;;;;0.10;0.10;;;16.80;99.90;;;;;;5025104;28;20199;-79
2022/07/14 06:54:52;;;;;;;0.10;0.10;;;16.60;99.90;;;;;;5026322;28;20188;-79
2022/07/14 06:57:18;;;;;;;0.10;0.10;;;16.70;99.90;;;;;;5004610;28;20238;-79
2022/07/14 06:59:44;;;;;;;0.10;0.10;;;16.90;99.90;;;;;;5000872;28;20541;-79
2022/07/14 07:02:09;;;;;;;0.10;0.10;;;17.00;99.90;;;;;;5027781;28;20533;-79
2022/07/14 07:04:35;;;;;;;0.10;0.10;;;17.20;99.90;;;;;;5005221;28;20184;-79
2022/07/14 07:07:00;;;;;;;0.10;0.10;;;17.20;99.90;;;;;;5010397;28;20215;-80
2022/07/14 07:09:26;;;;;;;0.10;0.10;;;17.20;99.90;;;;;;5006622;28;20192;-79
2022/07/14 07:11:51;;;;;;;0.10;0.10;;;17.30;99.90;;;;;;5027094;28;20207;-79
2022/07/14 07:14:18;;;;;;;0.10;0.10;;;17.30;99.90;;;;;;5030007;28;20283;-78
2022/07/14 07:16:45;;;;;;;0.10;0.10;;;17.20;99.90;;;;;;5031703;28;20713;-80
2022/07/14 07:19:10;;;;;;;0.10;0.10;;;17.40;99.90;;;;;;5013200;28;20453;-79
2022/07/14 07:21:36;;;;;;;0.10;0.10;;;17.20;99.90;;;;;;5007079;28;20496;-80
2022/07/14 07:24:02;;;;;;;0.10;0.10;;;17.40;99.90;;;;;;5030435;28;20705;-79
2022/07/14 07:26:33;;;;;;;0.10;0.10;;;17.50;99.90;;;;;;5027674;28;20568;-79
2022/07/14 07:28:59;;;;;;;0.10;0.10;;;17.50;99.90;;;;;;5013289;28;20586;-79
2022/07/14 07:31:25;;;;;;;0.10;0.10;;;17.60;99.90;;;;;;5025283;28;20435;-79
2022/07/14 07:33:51;;;;;;;0.10;0.10;;;17.50;99.90;;;;;;5024982;28;21028;-79
2022/07/14 07:36:17;;;;;;;0.10;0.10;;;17.80;99.90;;;;;;5015380;28;20453;-78
2022/07/14 07:38:43;;;;;;;0.10;0.10;;;18.00;99.90;;;;;;5011126;28;20207;-79
2022/07/14 07:41:09;;;;;;;0.10;0.10;;;17.90;99.90;;;;;;5031381;28;21097;-80
2022/07/14 07:43:35;;;;;;;0.10;0.10;;;18.10;99.90;;;;;;5010005;28;20521;-79
2022/07/14 07:46:02;;;;;;;0.10;0.10;;;18.20;99.90;;;;;;5003983;28;20239;-79
2022/07/14 07:48:32;;;;;;;0.10;0.10;;;18.40;99.90;;;;;;5006140;28;20443;-80
2022/07/14 07:50:57;;;;;;;0.10;0.10;;;18.20;99.90;;;;;;5031708;28;20441;-79
2022/07/14 07:53:23;;;;;;;0.10;0.10;;;18.40;99.90;;;;;;5026046;28;20477;-79
2022/07/14 07:55:49;;;;;;;0.10;0.10;;;18.40;99.90;;;;;;5025360;28;20187;-79
2022/07/14 07:58:14;;;;;;;0.10;0.10;;;18.50;99.90;;;;;;5005282;28;20850;-79
2022/07/14 08:00:40;;;;;;;0.10;0.10;;;18.70;99.90;;;;;;5005994;28;20192;-79
2022/07/14 08:03:05;;;;;;;0.10;0.10;;;18.50;99.90;;;;;;5000722;28;20296;-80
2022/07/14 08:05:32;;;;;;;0.10;0.10;;;18.30;99.90;;;;;;5004255;28;20235;-79
2022/07/14 08:07:59;;;;;;;0.10;0.00;;;18.60;99.90;;;;;;5000300;28;20303;-79
2022/07/14 08:10:25;;;;;;;0.10;0.10;;;19.10;99.90;;;;;;5024890;28;20438;-80
2022/07/14 08:12:51;;;;;;;0.10;0.10;;;18.80;99.90;;;;;;5013072;28;20524;-79
2022/07/14 08:15:17;;;;;;;0.10;0.00;;;18.90;99.90;;;;;;5008137;28;20275;-79
2022/07/14 08:17:43;;;;;;;0.10;0.10;;;19.00;99.90;;;;;;5010767;28;20188;-78
2022/07/14 08:20:09;;;;;;;0.10;0.10;;;19.00;99.90;;;;;;5018301;28;20434;-78
2022/07/14 08:22:36;;;;;;;0.10;0.10;;;18.70;99.90;;;;;;5008543;28;20451;-78
2022/07/14 08:25:04;;;;;;;0.10;0.00;;;18.80;99.90;;;;;;5017218;28;20538;-78
2022/07/14 08:27:31;;;;;;;0.10;0.10;;;18.80;99.90;;;;;;5009709;28;20519;-79
2022/07/14 08:29:56;;;;;;;0.10;0.10;;;19.20;99.90;;;;;;5019512;28;20474;-78
2022/07/14 08:32:42;;;;;;;0.10;0.10;;;19.30;99.90;;;;;;5000575;28;20817;-78
2022/07/14 08:35:10;;;;;;;0.10;0.10;;;19.50;99.90;;;;;;4999612;28;20192;-78
2022/07/14 08:37:36;;;;;;;0.10;0.10;;;19.70;99.90;;;;;;5002769;28;20439;-79
2022/07/14 08:40:05;;;;;;;0.10;0.10;;;19.60;99.90;;;;;;4998571;28;20480;-79
2022/07/14 08:42:32;;;;;;;0.10;0.10;;;19.80;99.90;;;;;;5012257;28;20485;-79
2022/07/14 08:44:58;;;;;;;0.10;0.00;;;19.80;99.90;;;;;;5011609;28;20436;-78
2022/07/14 08:47:24;;;;;;;0.10;0.10;;;20.40;99.90;;;;;;5016271;28;20576;-79
2022/07/14 08:49:50;;;;;;;0.10;0.00;;;19.70;99.90;;;;;;5002502;28;20545;-79
2022/07/14 08:52:20;;;;;;;0.10;0.10;;;19.40;99.90;;;;;;4997038;28;20589;-79
2022/07/14 08:54:46;;;;;;;0.10;0.10;;;19.10;99.90;;;;;;4996037;28;20243;-79
2022/07/14 08:57:12;;;;;;;0.10;0.10;;;19.40;99.90;;;;;;5010906;28;20479;-79
2022/07/14 08:59:38;;;;;;;0.10;0.00;;;19.40;99.90;;;;;;5011293;28;20438;-79
2022/07/14 09:02:04;;;;;;;0.10;0.10;;;20.10;99.90;;;;;;5017979;28;20465;-80
2022/07/14 09:04:30;;;;;;;0.10;0.10;;;20.10;99.90;;;;;;5030838;28;20215;-80
2022/07/14 09:06:57;;;;;;;0.10;0.10;;;20.60;99.90;;;;;;5008519;28;20482;-79
2022/07/14 09:09:27;;;;;;;0.10;0.00;;;20.50;99.90;;;;;;5003529;28;20521;-80
2022/07/14 09:11:58;;;;;;;0.10;0.00;;;20.20;99.90;;;;;;5029215;28;20454;-79
2022/07/14 09:14:26;;;;;;;0.10;0.10;;;19.90;99.90;;;;;;5006228;28;20651;-78
2022/07/14 09:16:53;;;;;;;0.10;0.10;;;19.70;99.90;;;;;;5018745;28;20528;-79
2022/07/14 09:19:20;;;;;;;0.10;0.00;;;19.70;99.90;;;;;;5023654;28;20889;-79
2022/07/14 09:21:54;;;;;;;0.10;0.10;;;19.50;99.90;;;;;;5021946;28;20482;-79
2022/07/14 09:24:21;;;;;;;0.10;0.00;;;20.00;99.90;;;;;;5003044;28;20468;-79
2022/07/14 09:26:49;;;;;;;0.10;0.00;;;20.00;99.90;;;;;;5021356;28;20483;-79
2022/07/14 09:29:26;;;;;;;0.10;0.10;;;20.20;99.90;;;;;;5001022;28;20442;-79
2022/07/14 09:31:52;;;;;;;0.10;0.00;;;19.90;99.90;;;;;;5021510;28;20533;-78
2022/07/14 09:34:27;;;;;;;0.10;0.00;;;19.90;99.90;;;;;;5011112;28;20534;-79
2022/07/14 09:37:07;;;;;;;0.10;0.10;;;19.50;99.90;;;;;;5006180;28;20186;-79
2022/07/14 09:39:33;;;;;;;0.10;0.10;;;19.70;99.90;;;;;;5026070;28;20468;-80
2022/07/14 09:42:00;;;;;;;0.00;0.00;;;19.70;99.90;;;;;;5025053;28;20973;-79
2022/07/14 09:44:25;;;;;;;0.00;0.00;;;19.80;99.90;;;;;;5003486;28;20204;-80
2022/07/14 09:46:56;;;;;;;0.00;0.00;;;19.50;99.90;;;;;;5022485;28;20748;-79
2022/07/14 09:49:24;;;;;;;0.00;0.00;;;19.20;99.90;;;;;;5026719;28;20180;-79
2022/07/14 09:51:53;;;;;;;0.00;0.00;;;19.10;99.90;;;;;;5024482;28;20953;-78
2022/07/14 09:54:45;;;;;;;0.00;0.00;;;19.60;99.90;;;;;;5028088;28;20434;-80
2022/07/14 09:57:14;;;;;;;0.00;0.00;;;19.50;99.90;;;;;;4997618;28;20513;-79
2022/07/14 09:59:56;;;;;;;0.00;0.00;;;19.90;99.90;;;;;;5009640;28;20447;-80
2022/07/14 10:02:29;;;;;;;0.00;0.00;;;20.00;99.90;;;;;;5007123;28;20520;-78
2022/07/14 10:05:02;;;;;;;0.00;0.00;;;19.70;99.90;;;;;;5008287;28;20452;-79
2022/07/14 10:07:33;;;;;;;0.00;0.00;;;19.80;99.90;;;;;;5005002;28;20978;-79
2022/07/14 10:10:01;;;;;;;0.00;0.00;;;19.70;99.90;;;;;;5007103;28;20846;-80
2022/07/14 10:12:27;;;;;;;0.00;0.00;;;19.80;99.90;;;;;;5010019;28;20455;-79
2022/07/14 10:14:53;;;;;;;0.00;0.00;;;19.90;99.90;;;;;;5008687;28;20443;-79
2022/07/14 10:17:19;;;;;;;0.00;0.00;;;19.90;99.90;;;;;;5007623;28;20852;-79
2022/07/14 10:19:46;;;;;;;0.00;0.00;;;20.00;99.90;;;;;;5001224;28;20447;-78
2022/07/14 10:22:13;;;;;;;0.00;0.00;;;20.20;99.90;;;;;;5009093;28;20600;-79
2022/07/14 10:24:40;;;;;;;0.00;0.00;;;20.30;99.90;;;;;;5000011;28;20501;-79
2022/07/14 10:27:07;;;;;;;0.00;0.00;;;20.60;99.90;;;;;;4995206;28;21061;-79
2022/07/14 10:29:33;;;;;;;0.00;0.00;;;20.60;99.90;;;;;;5002571;28;20439;-78
2022/07/14 10:32:20;;;;;;;0.00;0.00;;;20.60;99.90;;;;;;5008434;28;20504;-80
2022/07/14 10:35:18;;;;;;;0.00;0.00;;;20.30;99.90;;;;;;5001426;28;20558;-80
2022/07/14 10:38:11;;;;;;;0.00;0.00;;;20.40;99.90;;;;;;4993068;28;20472;-80
2022/07/14 10:40:48;;;;;;;0.00;0.00;;;20.60;99.90;;;;;;4996201;28;21143;-78
2022/07/14 10:43:20;;;;;;;0.00;0.00;;;20.80;99.90;;;;;;5005962;28;21239;-80
2022/07/14 10:45:54;;;;;;;0.00;0.00;;;20.70;99.90;;;;;;5001822;28;20436;-79
2022/07/14 10:48:33;;;;;;;0.00;0.00;;;20.60;99.90;;;;;;4997352;28;20455;-80
2022/07/14 10:51:14;;;;;;;0.00;0.00;;;20.30;99.90;;;;;;5008122;28;20473;-80
2022/07/14 10:54:07;;;;;;;0.00;0.00;;;20.50;99.90;;;;;;4992917;28;20447;-82
2022/07/14 10:56:32;;;;;;;0.00;0.00;;;20.70;99.90;;;;;;5014384;28;20493;-80
2022/07/14 10:59:26;;;;;;;0.00;0.00;;;20.50;99.90;;;;;;5020355;28;20437;-81
2022/07/14 11:02:10;;;;;;;0.00;0.00;;;20.60;99.90;;;;;;5020972;28;20183;-80
2022/07/14 11:04:58;;;;;;;0.00;0.00;;;20.70;99.90;;;;;;5019402;28;20438;-80
2022/07/14 11:07:44;;;;;;;0.00;0.00;;;20.60;99.90;;;;;;5027161;28;20485;-80
2022/07/14 11:10:19;;;;;;;0.00;0.00;;;20.20;99.90;;;;;;5025271;28;20438;-80
2022/07/14 11:13:00;;;;;;;0.00;0.00;;;20.00;99.90;;;;;;5000966;28;20442;-79
2022/07/14 11:15:40;;;;;;;0.00;0.00;;;19.90;99.90;;;;;;5003004;28;20988;-79
2022/07/14 11:18:27;;;;;;;0.00;0.00;;;19.80;99.90;;;;;;5017361;28;20809;-79
2022/07/14 11:20:59;;;;;;;0.00;0.00;;;19.80;99.90;;;;;;4998369;28;20442;-80
2022/07/14 11:23:30;;;;;;;0.00;0.00;;;20.30;99.90;;;;;;5011387;28;20442;-79
2022/07/14 11:25:57;;;;;;;0.00;0.00;;;20.60;99.90;;;;;;5010908;28;20442;-79
2022/07/14 11:28:49;;;;;;;0.00;0.00;;;20.70;99.90;;;;;;5007735;28;20449;-80
2022/07/14 11:31:22;;;;;;;0.00;0.00;;;20.60;99.90;;;;;;5023872;28;20454;-81
2022/07/14 11:36:59;;;;;;;0.00;0.00;;;20.30;99.90;;;;;;5009317;28;20448;-79
2022/07/14 11:39:31;;;;;;;0.00;0.00;;;20.30;99.90;;;;;;4999561;28;20438;-80
2022/07/14 11:42:07;;;;;;;0.00;0.00;;;20.20;99.90;;;;;;4999347;28;20541;-80
2022/07/14 11:44:33;;;;;;;0.00;0.00;;;20.10;99.90;;;;;;5019628;28;20492;-80
2022/07/14 11:47:00;;;;;;;0.00;0.00;;;20.20;99.90;;;;;;5005326;28;20905;-80
2022/07/14 11:49:26;;;;;;;0.03;0.00;;;20.30;99.90;;;;;;5026564;28;20640;-80
2022/07/14 11:51:56;;;;;;;0.10;0.00;;;20.00;99.90;;;;;;5022481;28;21898;-79
2022/07/14 11:54:22;;;;;;;0.10;0.00;;;19.80;99.90;;;;;;5008910;28;20446;-79
2022/07/14 11:56:49;;;;;;;0.10;0.10;;;20.00;99.90;;;;;;5004896;28;20510;-79
2022/07/14 11:59:18;;;;;;;0.10;0.00;;;20.10;99.90;;;;;;5003470;28;20478;-78
2022/07/14 12:01:44;;;;;;;0.10;0.00;;;20.00;99.90;;;;;;5000620;28;20459;-79
2022/07/14 12:04:14;;;;;;;0.10;0.10;;;20.10;99.90;;;;;;5008501;28;21002;-79
2022/07/14 12:06:43;;;;;;;0.10;0.00;;;20.10;99.90;;;;;;5010006;28;20487;-79
2022/07/14 12:09:09;;;;;;;0.10;0.00;;;19.80;99.90;;;;;;5002298;28;20594;-80
2022/07/14 12:11:35;;;;;;;0.10;0.00;;;20.20;99.90;;;;;;5006081;28;20451;-79
2022/07/14 12:14:00;;;;;;;0.10;0.00;;;20.00;99.90;;;;;;5008792;28;20530;-79
2022/07/14 12:16:26;;;;;;;0.10;0.00;;;20.50;99.90;;;;;;4999085;28;20630;-79
2022/07/14 12:18:53;;;;;;;0.10;0.10;;;20.50;99.90;;;;;;4998610;28;20211;-79
2022/07/14 12:21:32;;;;;;;0.10;0.00;;;20.30;99.90;;;;;;5004903;28;20596;-79
2022/07/14 12:23:58;;;;;;;0.10;0.00;;;20.20;99.90;;;;;;5003508;28;20444;-79
2022/07/14 12:26:25;;;;;;;0.10;0.00;;;20.70;99.90;;;;;;5005655;28;21073;-80
2022/07/14 12:28:52;;;;;;;0.10;0.00;;;20.90;99.90;;;;;;5009306;28;20244;-78
2022/07/14 12:31:19;;;;;;;0.10;0.00;;;21.00;99.90;;;;;;4995624;28;20449;-78
2022/07/14 12:33:46;;;;;;;0.10;0.00;;;20.60;99.90;;;;;;5007491;28;20455;-78
2022/07/14 12:36:18;;;;;;;0.10;0.00;;;20.20;99.90;;;;;;4999201;28;20520;-77
2022/07/14 12:38:45;;;;;;;0.10;0.10;;;19.90;99.90;;;;;;5009782;28;20546;-79
2022/07/14 12:41:13;;;;;;;0.10;0.10;;;19.70;99.90;;;;;;5008185;28;20535;-78
2022/07/14 12:43:41;;;;;;;0.10;0.10;;;19.20;99.90;;;;;;5004306;28;20466;-78
2022/07/14 12:46:16;;;;;;;0.10;0.10;;;18.30;99.90;;;;;;5006776;28;20473;-76
2022/07/14 12:48:51;;;;;;;0.10;0.10;;;18.00;99.90;;;;;;5011382;28;20521;-76
2022/07/14 12:51:36;;;;;;;0.10;0.10;;;18.00;99.90;;;;;;5009691;28;20446;-76
2022/07/14 12:54:11;;;;;;;0.10;0.10;;;18.10;99.90;;;;;;4998368;28;20454;-77
2022/07/14 12:56:51;;;;;;;0.10;0.10;;;18.80;99.90;;;;;;5008502;28;20479;-77
2022/07/14 12:59:20;;;;;;;0.10;0.00;;;19.50;99.90;;;;;;5007801;28;20486;-78